Time;durP1;ratioP1;P1;durP2;ratioP2;P2;SDS_P1;SDS_P2;PMS_P1;PMS_P2;Temp;Humidity;BMP_temperature;BMP_pressure;BME280_temperature;BME280_humidity;BME280_pressure;Samples;Min_cycle;Max_cycle;Signal;HPM_P1;HPM_P2
2024/04/11 00:06:49;;;;;;;9.3;4.5;;;;;;;11.42;75.94;100173.33333333;;;;
2024/04/11 00:16:49;;;;;;;9.3;4.5;;;;;;;11.42;76.04;100176.66666667;;;;
2024/04/11 00:27:49;;;;;;;6.6;4.1;;;;;;;11.35;76.15;100185;;;;
2024/04/11 00:37:49;;;;;;;6.6;4.1;;;;;;;11.41;75.96;100180;;;;
2024/04/11 00:48:49;;;;;;;6.6;4.1;;;;;;;11.32;76.07;100188.33333333;;;;
2024/04/11 00:58:49;;;;;;;7;4.6;;;;;;;11.35;76.17;100178.33333333;;;;
2024/04/11 01:08:51;;;;;;;7;4.6;;;;;;;11.43;75.94;100168.33333333;;;;
2024/04/11 01:18:49;;;;;;;7;4.6;;;;;;;11.33;76.31;100163.33333333;;;;
2024/04/11 01:28:50;;;;;;;8.4;3.8;;;;;;;11.3;76.58;100161.66666667;;;;
2024/04/11 01:39:49;;;;;;;8.4;3.8;;;;;;;11.32;76.32;100161.66666667;;;;
2024/04/11 01:49:49;;;;;;;8.4;3.8;;;;;;;11.32;76.52;100168.33333333;;;;
2024/04/11 01:59:53;;;;;;;9.8;4.3;;;;;;;11.29;76.62;100176.66666667;;;;
2024/04/11 02:10:49;;;;;;;9.8;4.3;;;;;;;11.27;76.51;100176.66666667;;;;
2024/04/11 02:21:49;;;;;;;9.8;4.3;;;;;;;11.29;75.99;100168.33333333;;;;
2024/04/11 02:32:49;;;;;;;7.4;4;;;;;;;11.15;76.01;100170;;;;
2024/04/11 02:42:49;;;;;;;7.4;4;;;;;;;11.09;76.64;100181.66666667;;;;
2024/04/11 02:53:49;;;;;;;7.4;4;;;;;;;11.07;77.34;100178.33333333;;;;
2024/04/11 03:04:50;;;;;;;8.9;4.7;;;;;;;11.09;77.58;100175;;;;
2024/04/11 03:15:50;;;;;;;8.9;4.7;;;;;;;11.17;77.7;100171.66666667;;;;
2024/04/11 03:25:49;;;;;;;9.6;5.7;;;;;;;11.16;77.66;100166.66666667;;;;
2024/04/11 03:35:49;;;;;;;9.6;5.7;;;;;;;11.2;77.53;100173.33333333;;;;
2024/04/11 03:46:49;;;;;;;9.6;5.7;;;;;;;11.11;78.3;100166.66666667;;;;
2024/04/11 03:57:49;;;;;;;10.9;6;;;;;;;11.2;78;100166.66666667;;;;
2024/04/11 04:08:49;;;;;;;10.9;6;;;;;;;11.24;77.64;100173.33333333;;;;
2024/04/11 04:18:50;;;;;;;10.9;6;;;;;;;11.27;77.59;100168.33333333;;;;
2024/04/11 04:29:50;;;;;;;10.2;5.6;;;;;;;11.3;77.58;100173.33333333;;;;
2024/04/11 04:39:50;;;;;;;10.2;5.6;;;;;;;11.44;77.34;100186.66666667;;;;
2024/04/11 04:49:53;;;;;;;10.2;5.6;;;;;;;11.55;77.08;100200;;;;
2024/04/11 05:00:50;;;;;;;10.4;5.6;;;;;;;11.62;77.69;100198.33333333;;;;
2024/04/11 05:10:49;;;;;;;10.4;5.6;;;;;;;11.78;77.51;100198.33333333;;;;
2024/04/11 05:21:49;;;;;;;10.4;5.6;;;;;;;11.96;75.79;100215;;;;
2024/04/11 05:31:50;;;;;;;11.3;6;;;;;;;12.27;76.6;100216.66666667;;;;
2024/04/11 05:41:49;;;;;;;11.3;6;;;;;;;12.4;75.08;100216.66666667;;;;
2024/04/11 05:52:49;;;;;;;11.3;6;;;;;;;12.62;74.74;100226.66666667;;;;
2024/04/11 06:03:50;;;;;;;16.4;9.3;;;;;;;12.97;73.47;100240;;;;
2024/04/11 06:14:49;;;;;;;16.4;9.3;;;;;;;13.31;73.45;100235;;;;
2024/04/11 06:24:49;;;;;;;16.4;9.3;;;;;;;13.66;70.52;100251.66666667;;;;
2024/04/11 06:34:52;;;;;;;13.7;11;;;;;;;13.91;70.22;100268.33333333;;;;
2024/04/11 06:45:49;;;;;;;13.7;11;;;;;;;14.27;68.77;100270;;;;
2024/04/11 06:56:49;;;;;;;13.6;8.5;;;;;;;14.41;67.94;100270;;;;
2024/04/11 07:07:54;;;;;;;13.6;8.5;;;;;;;14.13;68.97;100266.66666667;;;;
2024/04/11 07:18:54;;;;;;;13.6;8.5;;;;;;;14.32;66.61;100276.66666667;;;;
2024/04/11 07:29:49;;;;;;;10.2;7.4;;;;;;;14.24;65.65;100286.66666667;;;;
2024/04/11 07:39:49;;;;;;;10.2;7.4;;;;;;;14.52;64.54;100290;;;;
2024/04/11 07:50:50;;;;;;;10.2;7.4;;;;;;;14.2;64.74;100298.33333333;;;;
2024/04/11 08:01:49;;;;;;;10.4;6.5;;;;;;;14.69;64.4;100305;;;;
2024/04/11 08:12:50;;;;;;;10.4;6.5;;;;;;;14.74;63.68;100306.66666667;;;;
2024/04/11 08:22:49;;;;;;;10.4;6.5;;;;;;;15.57;61.74;100315;;;;
2024/04/11 08:33:49;;;;;;;9.6;6.2;;;;;;;15.8;59.41;100308.33333333;;;;
2024/04/11 08:43:50;;;;;;;9.6;6.2;;;;;;;16.12;59.24;100298.33333333;;;;
2024/04/11 08:54:51;;;;;;;10.6;6.9;;;;;;;16.95;58.45;100288.33333333;;;;
2024/04/11 09:04:49;;;;;;;10.6;6.9;;;;;;;16.82;57.53;100295;;;;
2024/04/11 09:15:49;;;;;;;10.6;6.9;;;;;;;16.34;58.55;100308.33333333;;;;
2024/04/11 09:25:49;;;;;;;10.6;6.3;;;;;;;17.78;54.83;100308.33333333;;;;
2024/04/11 09:35:53;;;;;;;10.6;6.3;;;;;;;17.63;53.9;100300;;;;
2024/04/11 09:46:49;;;;;;;10.6;6.3;;;;;;;18.24;50.23;100295;;;;
2024/04/11 09:57:49;;;;;;;8.7;4.6;;;;;;;18.37;51.66;100293.33333333;;;;
2024/04/11 10:07:57;;;;;;;8.7;4.6;;;;;;;18.25;50.28;100288.33333333;;;;
2024/04/11 10:17:51;;;;;;;8.7;4.6;;;;;;;18.06;49.4;100288.33333333;;;;
2024/04/11 10:28:52;;;;;;;9.2;4.7;;;;;;;18.61;48.63;100278.33333333;;;;
2024/04/11 10:39:54;;;;;;;9.2;4.7;;;;;;;18.48;49.91;100280;;;;
2024/04/11 10:50:49;;;;;;;9.2;4.7;;;;;;;19.56;46.78;100276.66666667;;;;
2024/04/11 11:01:07;;;;;;;8.3;4.4;;;;;;;18.36;48.84;100268.33333333;;;;
2024/04/11 11:11:49;;;;;;;8.3;4.4;;;;;;;19.46;47.75;100270;;;;
2024/04/11 11:21:50;;;;;;;8.3;4.4;;;;;;;19.81;47.77;100263.33333333;;;;
2024/04/11 11:31:50;;;;;;;8.5;4.4;;;;;;;19.75;48.49;100256.66666667;;;;
2024/04/11 11:42:52;;;;;;;8.5;4.4;;;;;;;19.32;47.89;100250;;;;
2024/04/11 11:52:49;;;;;;;8.5;4.4;;;;;;;19.42;47.84;100245;;;;
2024/04/11 12:03:55;;;;;;;7.5;4.6;;;;;;;20.34;46.67;100238.33333333;;;;
2024/04/11 12:14:54;;;;;;;7.5;4.6;;;;;;;20.15;45.15;100228.33333333;;;;
2024/04/11 12:25:50;;;;;;;7.9;4.2;;;;;;;20.65;45.02;100221.66666667;;;;
2024/04/11 12:35:55;;;;;;;7.9;4.2;;;;;;;20.45;47.44;100208.33333333;;;;
2024/04/11 12:46:52;;;;;;;7.9;4.2;;;;;;;19.8;47.29;100205;;;;
2024/04/11 12:57:51;;;;;;;9.8;4.4;;;;;;;20.21;45.4;100200;;;;
2024/04/11 13:07:49;;;;;;;9.8;4.4;;;;;;;20.39;45.37;100188.33333333;;;;
2024/04/11 13:18:53;;;;;;;9.8;4.4;;;;;;;19.17;48.13;100188.33333333;;;;
2024/04/11 13:29:52;;;;;;;8.3;4.3;;;;;;;19.51;47.68;100183.33333333;;;;
2024/04/11 13:40:57;;;;;;;8.3;4.3;;;;;;;19.65;49.23;100171.66666667;;;;
2024/04/11 13:49:57;;;;;;;8.3;4.3;;;;;;;19.18;48.43;100161.66666667;;;;
2024/04/11 13:59:54;;;;;;;7;4.4;;;;;;;19.57;48.23;100148.33333333;;;;
2024/04/11 14:10:49;;;;;;;7;4.4;;;;;;;20.37;50.03;100156.66666667;;;;
2024/04/11 14:20:56;;;;;;;7;4.4;;;;;;;20.66;48.8;100146.66666667;;;;
2024/04/11 14:31:49;;;;;;;9.6;5.9;;;;;;;20.4;48.1;100140;;;;
2024/04/11 14:42:49;;;;;;;9.6;5.9;;;;;;;20.82;46.07;100136.66666667;;;;
2024/04/11 14:53:49;;;;;;;9.6;5.9;;;;;;;20.76;45.46;100128.33333333;;;;
2024/04/11 15:04:51;;;;;;;11;5.7;;;;;;;21.56;44.54;100123.33333333;;;;
2024/04/11 15:14:51;;;;;;;11;5.7;;;;;;;22.36;42.83;100118.33333333;;;;
2024/04/11 15:24:49;;;;;;;11;5.7;;;;;;;22.93;41.2;100111.66666667;;;;
2024/04/11 15:34:53;;;;;;;8.1;4.4;;;;;;;23.42;39.57;100115;;;;
2024/04/11 15:45:57;;;;;;;8.1;4.4;;;;;;;22.64;41.05;100116.66666667;;;;
2024/04/11 15:56:53;;;;;;;8.8;4.3;;;;;;;21.9;41.77;100108.33333333;;;;
2024/04/11 16:06:53;;;;;;;8.8;4.3;;;;;;;21.92;42.57;100103.33333333;;;;
2024/04/11 16:17:49;;;;;;;8.8;4.3;;;;;;;21.49;43.42;100098.33333333;;;;
2024/04/11 16:28:49;;;;;;;6.9;4;;;;;;;20.12;46.47;100096.66666667;;;;
2024/04/11 16:38:53;;;;;;;6.9;4;;;;;;;19.23;48.56;100090;;;;
2024/04/11 16:49:53;;;;;;;6.9;4;;;;;;;18.43;50.36;100093.33333333;;;;
2024/04/11 16:59:52;;;;;;;9.7;4.9;;;;;;;17.78;51.77;100086.66666667;;;;
2024/04/11 17:09:54;;;;;;;9.7;4.9;;;;;;;17.12;53.59;100090;;;;
2024/04/11 17:20:49;;;;;;;9.7;4.9;;;;;;;16.26;55.29;100093.33333333;;;;
2024/04/11 17:31:02;;;;;;;8.4;5.6;;;;;;;15.42;56.84;100098.33333333;;;;
2024/04/11 17:42:25;;;;;;;8.4;5.6;;;;;;;14.58;59.57;100108.33333333;;;;
2024/04/11 17:51:54;;;;;;;8.4;5.6;;;;;;;13.98;62.79;100106.66666667;;;;
2024/04/11 18:01:50;;;;;;;10.2;7;;;;;;;13.52;64.37;100123.33333333;;;;
2024/04/11 18:12:50;;;;;;;10.2;7;;;;;;;13.01;67.35;100126.66666667;;;;
2024/04/11 18:23:50;;;;;;;10.2;7;;;;;;;12.62;68.91;100133.33333333;;;;
2024/04/11 18:33:52;;;;;;;10.8;7;;;;;;;12.27;70.28;100136.66666667;;;;
2024/04/11 18:44:50;;;;;;;10.8;7;;;;;;;12.12;70.87;100135;;;;
2024/04/11 18:54:53;;;;;;;10.8;7;;;;;;;11.91;71.3;100128.33333333;;;;
2024/04/11 19:05:51;;;;;;;9.2;5.8;;;;;;;11.75;72.07;100131.66666667;;;;
2024/04/11 19:16:52;;;;;;;9.2;5.8;;;;;;;11.56;72.59;100140;;;;
2024/04/11 19:26:50;;;;;;;11.2;7.6;;;;;;;11.31;72.17;100146.66666667;;;;
2024/04/11 19:37:57;;;;;;;11.2;7.6;;;;;;;10.94;73.29;100158.33333333;;;;
2024/04/11 19:47:49;;;;;;;11.2;7.6;;;;;;;10.61;73.94;100165;;;;
2024/04/11 19:57:50;;;;;;;7.5;4.3;;;;;;;10.29;74.41;100166.66666667;;;;
2024/04/11 20:08:49;;;;;;;7.5;4.3;;;;;;;10.01;78.08;100171.66666667;;;;
2024/04/11 20:18:51;;;;;;;7.5;4.3;;;;;;;9.82;77.95;100171.66666667;;;;
2024/04/11 20:29:54;;;;;;;11.5;6.4;;;;;;;9.63;79.01;100176.66666667;;;;
2024/04/11 20:39:51;;;;;;;11.5;6.4;;;;;;;9.69;81.86;100178.33333333;;;;
2024/04/11 21:33:50;;;;;;;14.7;7.7;;;;;;;9.11;80.93;100211.66666667;;;;
2024/04/11 21:43:52;;;;;;;14.7;7.7;;;;;;;8.97;81.13;100218.33333333;;;;
2024/04/11 21:54:52;;;;;;;14.7;7.7;;;;;;;8.95;82.15;100220;;;;
2024/04/11 22:05:51;;;;;;;13.6;7.7;;;;;;;8.91;82.53;100218.33333333;;;;
2024/04/11 22:15:52;;;;;;;13.6;7.7;;;;;;;8.84;82.61;100220;;;;
2024/04/11 22:26:50;;;;;;;14.7;9.7;;;;;;;8.85;83.71;100218.33333333;;;;
2024/04/11 22:37:54;;;;;;;14.7;9.7;;;;;;;8.68;83.14;100221.66666667;;;;
2024/04/11 22:47:50;;;;;;;14.7;9.7;;;;;;;8.51;82.99;100226.66666667;;;;
2024/04/11 22:58:50;;;;;;;14.9;8.3;;;;;;;8.28;82.84;100235;;;;
2024/04/11 23:08:50;;;;;;;14.9;8.3;;;;;;;8.03;84.17;100228.33333333;;;;
2024/04/11 23:19:58;;;;;;;14.9;8.3;;;;;;;7.87;83.81;100235;;;;
2024/04/11 23:29:51;;;;;;;18.1;9.2;;;;;;;7.74;83.83;100231.66666667;;;;
2024/04/11 23:39:54;;;;;;;18.1;9.2;;;;;;;7.61;83.92;100240;;;;
2024/04/11 23:50:50;;;;;;;18.1;9.2;;;;;;;7.7;87.23;100231.66666667;;;;
